createdAt,value
2018-03-26T00:01:01.420Z,31.13
2018-03-26T00:03:27.877Z,31.30
2018-03-26T00:05:54.175Z,31.13
2018-03-26T00:08:20.548Z,31.83
2018-03-26T00:10:46.850Z,33.30
2018-03-26T00:13:13.222Z,31.90
2018-03-26T00:15:40.381Z,31.70
2018-03-26T00:18:07.419Z,33.17
2018-03-26T00:20:34.482Z,32.90
2018-03-26T00:23:01.554Z,33.07
2018-03-26T00:25:28.585Z,33.90
2018-03-26T00:27:54.958Z,32.07
2018-03-26T00:30:21.239Z,31.97
2018-03-26T00:32:47.568Z,33.10
2018-03-26T00:35:14.710Z,36.07
2018-03-26T00:37:41.790Z,34.37
2018-03-26T00:40:08.908Z,35.47
2018-03-26T00:42:35.246Z,35.53
2018-03-26T00:45:01.530Z,35.37
2018-03-26T00:47:28.574Z,34.70
2018-03-26T00:49:54.911Z,38.30
2018-03-26T00:52:21.212Z,38.50
2018-03-26T00:54:47.577Z,38.47
2018-03-26T00:57:13.929Z,39.40
2018-03-26T00:59:40.948Z,38.17
2018-03-26T01:02:07.251Z,38.70
2018-03-26T01:04:33.600Z,40.17
2018-03-26T01:07:00.637Z,38.93
2018-03-26T01:09:26.952Z,38.63
2018-03-26T01:11:54.103Z,39.23
2018-03-26T01:14:20.536Z,42.50
2018-03-26T01:16:46.865Z,40.77
2018-03-26T01:19:13.212Z,42.40
2018-03-26T01:21:39.519Z,41.77
2018-03-26T01:24:05.962Z,42.07
2018-03-26T01:26:32.309Z,41.67
2018-03-26T01:28:58.605Z,43.53
2018-03-26T01:31:24.934Z,44.00
2018-03-26T01:33:51.209Z,40.67
2018-03-26T01:36:18.310Z,41.30
2018-03-26T01:38:44.591Z,43.00
2018-03-26T01:41:11.629Z,44.63
2018-03-26T01:43:38.712Z,43.40
2018-03-26T01:46:05.003Z,44.93
2018-03-26T01:48:31.371Z,43.07
2018-03-26T01:50:57.718Z,42.17
2018-03-26T01:53:24.016Z,42.50
2018-03-26T01:55:50.414Z,43.10
2018-03-26T01:58:16.705Z,39.97
2018-03-26T02:00:43.029Z,41.30
2018-03-26T02:03:09.384Z,40.20
2018-03-26T02:05:35.718Z,40.17
2018-03-26T02:08:02.056Z,42.57
2018-03-26T02:10:28.410Z,41.00
2018-03-26T02:12:54.747Z,41.33
2018-03-26T02:15:21.081Z,40.37
2018-03-26T02:17:47.393Z,42.50
2018-03-26T02:20:14.499Z,40.50
2018-03-26T02:22:40.769Z,42.07
2018-03-26T02:25:07.858Z,41.67
2018-03-26T02:27:34.152Z,38.77
2018-03-26T02:30:01.241Z,39.20
2018-03-26T02:32:27.563Z,41.23
2018-03-26T02:34:53.895Z,40.83
2018-03-26T02:37:20.174Z,41.63
2018-03-26T02:39:46.554Z,40.57
2018-03-26T02:42:12.916Z,39.50
2018-03-26T02:44:39.220Z,39.60
2018-03-26T02:47:05.595Z,39.67
2018-03-26T02:49:31.898Z,40.63
2018-03-26T02:51:58.245Z,38.10
2018-03-26T02:54:37.510Z,39.33
2018-03-26T02:57:03.932Z,40.83
2018-03-26T02:59:31.029Z,41.00
2018-03-26T03:01:57.566Z,41.33
2018-03-26T03:04:23.890Z,40.03
2018-03-26T03:06:50.270Z,41.23
2018-03-26T03:09:16.704Z,41.23
2018-03-26T03:11:43.794Z,42.10
2018-03-26T03:14:10.138Z,40.13
2018-03-26T03:16:36.747Z,40.73
2018-03-26T03:19:03.101Z,41.10
2018-03-26T03:21:29.456Z,41.60
2018-03-26T03:23:55.759Z,41.60
2018-03-26T03:26:22.199Z,42.80
2018-03-26T03:28:48.651Z,44.23
2018-03-26T03:31:14.952Z,41.50
2018-03-26T03:33:41.246Z,44.83
2018-03-26T03:36:07.572Z,41.30
2018-03-26T03:38:33.838Z,43.13
2018-03-26T03:41:00.180Z,42.97
2018-03-26T03:43:26.509Z,44.60
2018-03-26T03:45:52.802Z,46.17
2018-03-26T03:48:19.287Z,43.30
2018-03-26T03:50:45.565Z,42.37
2018-03-26T03:53:11.862Z,44.40
2018-03-26T03:55:38.973Z,43.47
2018-03-26T03:58:06.097Z,43.60
2018-03-26T04:00:32.570Z,42.17
2018-03-26T04:02:59.675Z,43.83
2018-03-26T04:05:25.990Z,43.40
2018-03-26T04:07:52.318Z,42.67
2018-03-26T04:10:18.605Z,44.47
2018-03-26T04:12:44.922Z,41.30
2018-03-26T04:15:11.339Z,41.00
2018-03-26T04:17:37.713Z,39.70
2018-03-26T04:20:04.762Z,40.63
2018-03-26T04:22:31.811Z,39.87
2018-03-26T04:24:58.141Z,44.50
2018-03-26T04:27:25.163Z,40.37
2018-03-26T04:29:51.514Z,40.37
2018-03-26T04:32:18.545Z,38.33
2018-03-26T04:34:45.584Z,38.47
2018-03-26T04:37:11.920Z,34.40
2018-03-26T04:39:38.964Z,31.87
2018-03-26T04:42:05.306Z,31.37
2018-03-26T04:44:32.318Z,29.70
2018-03-26T04:46:58.626Z,30.60
2018-03-26T04:49:24.973Z,29.83
2018-03-26T04:51:51.285Z,30.20
2018-03-26T04:54:17.678Z,30.20
2018-03-26T04:56:44.795Z,31.90
2018-03-26T04:59:11.855Z,30.00
2018-03-26T05:01:38.964Z,32.17
2018-03-26T05:04:05.308Z,30.70
2018-03-26T05:06:31.638Z,31.30
2018-03-26T05:08:57.977Z,32.20
2018-03-26T05:11:24.302Z,28.93
2018-03-26T05:13:50.666Z,29.87
2018-03-26T05:16:17.714Z,30.60
2018-03-26T05:18:44.747Z,28.57
2018-03-26T05:21:11.818Z,29.07
2018-03-26T05:23:38.104Z,28.80
2018-03-26T05:26:04.480Z,28.23
2018-03-26T05:28:31.547Z,28.90
2018-03-26T05:30:57.936Z,28.87
2018-03-26T05:33:24.197Z,27.30
2018-03-26T05:35:50.537Z,28.00
2018-03-26T05:38:16.850Z,27.93
2018-03-26T05:40:43.187Z,26.80
2018-03-26T05:43:09.461Z,26.07
2018-03-26T05:45:35.822Z,25.47
2018-03-26T05:48:02.137Z,24.30
2018-03-26T05:50:29.226Z,25.17
2018-03-26T05:52:55.581Z,25.40
2018-03-26T05:55:21.863Z,25.60
2018-03-26T05:57:48.919Z,24.57
2018-03-26T06:00:15.240Z,23.93
2018-03-26T06:02:41.618Z,22.20
2018-03-26T06:05:07.953Z,21.60
2018-03-26T06:07:34.790Z,22.10
2018-03-26T06:10:01.089Z,21.57
2018-03-26T06:12:27.431Z,21.07
2018-03-26T06:14:53.736Z,20.67
2018-03-26T06:17:20.036Z,20.07
2018-03-26T06:19:47.109Z,21.80
2018-03-26T06:22:13.448Z,22.30
2018-03-26T06:24:39.819Z,22.70
2018-03-26T06:27:06.122Z,22.80
2018-03-26T06:29:32.481Z,20.70
2018-03-26T06:31:59.328Z,24.10
2018-03-26T06:34:25.631Z,21.37
2018-03-26T06:39:54.232Z,21.63
2018-03-26T06:42:20.607Z,18.10
2018-03-26T06:44:46.874Z,21.70
2018-03-26T06:47:13.284Z,21.00
2018-03-26T06:49:39.583Z,21.50
2018-03-26T06:52:06.641Z,19.47
2018-03-26T06:54:32.958Z,21.90
2018-03-26T06:56:59.290Z,20.17
2018-03-26T06:59:26.458Z,23.00
2018-03-26T07:01:52.744Z,21.27
2018-03-26T07:04:19.070Z,20.10
2018-03-26T07:06:45.418Z,19.37
2018-03-26T07:09:12.476Z,20.30
2018-03-26T07:11:39.534Z,17.70
2018-03-26T07:14:06.656Z,19.77
2018-03-26T07:16:32.934Z,17.63
2018-03-26T07:18:59.297Z,18.40
2018-03-26T07:21:25.615Z,18.93
2018-03-26T07:23:51.941Z,18.77
2018-03-26T07:26:18.233Z,17.50
2018-03-26T07:28:44.574Z,19.03
2018-03-26T07:31:10.881Z,18.20
2018-03-26T07:33:37.962Z,18.80
2018-03-26T07:36:04.266Z,17.30
2018-03-26T07:38:30.608Z,19.87
2018-03-26T07:40:56.948Z,17.77
2018-03-26T07:43:23.249Z,16.80
2018-03-26T07:45:50.348Z,17.07
2018-03-26T07:48:16.659Z,17.93
2018-03-26T07:50:42.997Z,20.10
2018-03-26T07:53:09.293Z,17.47
2018-03-26T07:55:35.641Z,18.23
2018-03-26T07:58:01.970Z,17.80
2018-03-26T08:00:28.305Z,17.07
2018-03-26T08:02:54.665Z,16.93
2018-03-26T08:05:22.460Z,19.03
2018-03-26T08:07:49.524Z,17.73
2018-03-26T08:10:15.868Z,19.93
2018-03-26T08:12:42.162Z,18.13
2018-03-26T08:15:08.578Z,19.10
2018-03-26T08:17:34.869Z,18.87
2018-03-26T08:20:01.192Z,20.30
2018-03-26T08:22:27.520Z,18.40
2018-03-26T08:24:53.858Z,17.90
2018-03-26T08:27:20.138Z,22.17
2018-03-26T08:29:47.217Z,20.93
2018-03-26T08:32:13.514Z,21.23
2018-03-26T08:34:39.846Z,21.40
2018-03-26T08:37:06.922Z,22.33
2018-03-26T08:39:33.233Z,19.93
2018-03-26T08:42:00.395Z,21.57
2018-03-26T08:44:27.159Z,20.93
2018-03-26T08:46:53.492Z,20.23
2018-03-26T08:49:19.796Z,22.47
2018-03-26T08:51:46.185Z,22.00
2018-03-26T08:54:12.690Z,19.07
2018-03-26T08:56:38.963Z,19.97
2018-03-26T08:59:06.015Z,22.20
2018-03-26T09:01:33.103Z,18.70
2018-03-26T09:03:59.406Z,18.60
2018-03-26T09:06:25.747Z,17.80
2018-03-26T09:08:52.095Z,16.83
2018-03-26T09:11:18.440Z,17.03
2018-03-26T09:13:44.715Z,16.50
2018-03-26T09:16:12.010Z,16.70
2018-03-26T09:18:38.381Z,18.10
2018-03-26T09:21:05.443Z,17.00
2018-03-26T09:23:32.644Z,16.10
2018-03-26T09:25:58.967Z,14.57
2018-03-26T09:28:25.247Z,15.00
2018-03-26T09:30:51.586Z,15.03
2018-03-26T09:33:18.160Z,16.57
2018-03-26T09:35:44.509Z,14.97
2018-03-26T09:38:10.796Z,15.57
2018-03-26T09:40:37.142Z,15.00
2018-03-26T09:43:03.487Z,15.60
2018-03-26T09:45:29.808Z,14.63
2018-03-26T09:47:56.167Z,14.77
2018-03-26T09:50:22.505Z,14.60
2018-03-26T09:52:49.600Z,14.80
2018-03-26T09:55:16.017Z,14.87
2018-03-26T09:57:42.298Z,13.67
2018-03-26T10:00:08.999Z,13.90
2018-03-26T10:02:36.124Z,14.50
2018-03-26T10:05:02.429Z,15.20
2018-03-26T10:07:29.598Z,14.67
2018-03-26T10:09:55.927Z,14.20
2018-03-26T10:12:22.222Z,14.13
2018-03-26T10:14:48.606Z,13.50
2018-03-26T10:17:14.878Z,15.43
2018-03-26T10:19:41.214Z,14.43
2018-03-26T10:22:08.313Z,15.40
2018-03-26T10:24:34.600Z,14.93
2018-03-26T10:27:01.719Z,16.03
2018-03-26T10:29:28.019Z,15.77
2018-03-26T10:31:54.354Z,17.60
2018-03-26T10:34:20.679Z,15.50
2018-03-26T10:36:47.019Z,15.33
2018-03-26T10:39:13.315Z,15.90
2018-03-26T10:41:39.658Z,15.57
2018-03-26T10:44:05.954Z,16.77
2018-03-26T10:46:32.330Z,16.00
2018-03-26T10:48:58.601Z,15.10
2018-03-26T10:51:25.637Z,15.20
2018-03-26T10:53:51.969Z,16.27
2018-03-26T10:56:18.254Z,15.27
2018-03-26T10:58:44.626Z,15.83
2018-03-26T11:01:10.925Z,16.23
2018-03-26T11:03:37.264Z,15.77
2018-03-26T11:06:03.594Z,15.50
2018-03-26T11:08:29.932Z,15.30
2018-03-26T11:10:56.232Z,15.27
2018-03-26T11:13:22.533Z,14.80
2018-03-26T11:15:49.615Z,14.23
2018-03-26T11:18:15.933Z,14.13
2018-03-26T11:20:42.302Z,13.50
2018-03-26T11:23:08.654Z,13.70
2018-03-26T11:25:35.708Z,13.40
2018-03-26T11:28:02.865Z,13.40
2018-03-26T11:30:29.159Z,14.27
2018-03-26T11:32:55.456Z,13.87
2018-03-26T11:35:21.836Z,15.83
2018-03-26T11:37:48.124Z,16.70
2018-03-26T11:40:14.469Z,13.50
2018-03-26T11:42:40.749Z,13.30
2018-03-26T11:45:07.082Z,14.07
2018-03-26T11:47:33.386Z,10.97
2018-03-26T11:50:00.473Z,11.73
2018-03-26T11:52:26.758Z,11.23
2018-03-26T11:54:53.840Z,11.73
2018-03-26T11:57:20.135Z,11.97
2018-03-26T11:59:47.207Z,10.27
2018-03-26T12:02:13.562Z,11.47
2018-03-26T12:04:39.924Z,12.47
2018-03-26T12:07:06.206Z,12.50
2018-03-26T12:09:32.537Z,12.80
2018-03-26T12:11:58.881Z,11.60
2018-03-26T12:14:25.192Z,11.77
2018-03-26T12:16:51.517Z,12.43
2018-03-26T12:19:17.885Z,10.93
2018-03-26T12:21:44.231Z,12.47
2018-03-26T12:24:22.876Z,10.77
2018-03-26T12:26:49.135Z,12.07
2018-03-26T12:29:27.932Z,11.50
2018-03-26T12:31:54.181Z,12.00
2018-03-26T12:34:32.776Z,10.73
2018-03-26T12:36:59.040Z,10.50
2018-03-26T12:39:25.339Z,11.07
2018-03-26T12:41:51.682Z,9.63
2018-03-26T12:44:30.442Z,9.77
2018-03-26T12:46:56.716Z,9.40
2018-03-26T12:49:23.017Z,9.80
2018-03-26T12:52:02.601Z,11.23
2018-03-26T12:54:29.586Z,11.43
2018-03-26T12:57:08.273Z,10.80
2018-03-26T12:59:35.337Z,9.97
2018-03-26T13:02:14.021Z,11.37
2018-03-26T13:04:41.052Z,12.30
2018-03-26T13:07:08.118Z,12.43
2018-03-26T13:09:34.415Z,12.17
2018-03-26T13:12:01.506Z,13.40
2018-03-26T13:14:27.847Z,12.13
2018-03-26T13:16:54.130Z,11.63
2018-03-26T13:19:20.484Z,12.33
2018-03-26T13:21:46.771Z,11.80
2018-03-26T13:24:13.840Z,12.70
2018-03-26T13:26:40.122Z,12.20
2018-03-26T13:29:06.497Z,11.87
2018-03-26T13:31:32.782Z,10.90
2018-03-26T13:33:59.094Z,9.90
2018-03-26T13:36:25.423Z,11.00
2018-03-26T13:38:51.714Z,10.60
2018-03-26T13:41:18.080Z,11.27
2018-03-26T13:43:44.386Z,10.60
2018-03-26T13:46:10.752Z,9.43
2018-03-26T13:48:37.034Z,10.37
2018-03-26T13:51:03.367Z,10.93
2018-03-26T13:53:29.746Z,11.27
2018-03-26T13:55:56.030Z,10.97
2018-03-26T13:58:22.357Z,9.90
2018-03-26T14:00:48.721Z,9.73
2018-03-26T14:03:15.019Z,9.90
2018-03-26T14:05:41.350Z,10.27
2018-03-26T14:08:19.803Z,10.17
2018-03-26T14:10:58.599Z,10.37
2018-03-26T14:13:37.915Z,10.40
2018-03-26T14:16:16.569Z,10.40
2018-03-26T14:18:42.881Z,10.90
2018-03-26T14:21:09.241Z,9.33
2018-03-26T14:23:35.842Z,9.30
2018-03-26T14:26:02.486Z,9.57
2018-03-26T14:28:31.419Z,9.10
2018-03-26T14:30:59.361Z,9.90
2018-03-26T14:33:27.349Z,10.50
2018-03-26T14:35:55.506Z,10.57
2018-03-26T14:38:23.679Z,10.77
2018-03-26T14:40:50.217Z,10.60
2018-03-26T14:43:16.813Z,12.33
2018-03-26T14:45:44.302Z,9.33
2018-03-26T14:48:12.067Z,9.80
2018-03-26T14:50:39.718Z,9.30
2018-03-26T14:53:07.378Z,10.17
2018-03-26T14:55:35.245Z,9.47
2018-03-26T14:58:03.726Z,9.17
2018-03-26T15:00:31.282Z,8.80
2018-03-26T15:02:58.773Z,8.43
2018-03-26T15:05:26.646Z,8.87
2018-03-26T15:07:54.673Z,8.17
2018-03-26T15:10:22.948Z,8.30
2018-03-26T15:12:50.816Z,8.70
2018-03-26T15:15:18.577Z,7.83
2018-03-26T15:17:46.139Z,8.50
2018-03-26T15:20:13.796Z,7.67
2018-03-26T15:22:45.040Z,7.67
2018-03-26T15:25:12.804Z,7.90
2018-03-26T15:27:40.364Z,7.57
2018-03-26T15:30:07.957Z,7.40
2018-03-26T15:32:35.787Z,7.50
2018-03-26T15:35:04.163Z,7.63
2018-03-26T15:37:31.720Z,8.27
2018-03-26T15:39:59.585Z,8.37
2018-03-26T15:42:27.146Z,8.17
2018-03-26T15:44:55.112Z,8.97
2018-03-26T15:47:22.978Z,7.90
2018-03-26T15:49:49.466Z,8.90
2018-03-26T15:52:16.549Z,7.70
2018-03-26T15:54:42.863Z,7.93
2018-03-26T15:57:09.234Z,7.60
2018-03-26T15:59:35.604Z,7.87
2018-03-26T16:02:01.894Z,8.73
2018-03-26T16:04:29.705Z,8.17
2018-03-26T16:06:56.033Z,8.20
2018-03-26T16:09:22.404Z,8.37
2018-03-26T16:11:48.710Z,8.10
2018-03-26T16:14:15.007Z,8.03
2018-03-26T16:16:42.102Z,7.17
2018-03-26T16:19:08.410Z,7.70
2018-03-26T16:21:34.786Z,7.30
2018-03-26T16:24:01.092Z,7.50
2018-03-26T16:26:30.191Z,7.13
2018-03-26T16:28:56.525Z,7.57
2018-03-26T16:31:22.824Z,7.50
2018-03-26T16:33:49.199Z,7.60
2018-03-26T16:36:16.298Z,8.00
2018-03-26T16:38:42.642Z,8.00
2018-03-26T16:41:08.956Z,7.67
2018-03-26T16:43:35.971Z,7.90
2018-03-26T16:46:03.136Z,7.60
2018-03-26T16:48:29.448Z,7.97
2018-03-26T16:50:56.514Z,8.47
2018-03-26T16:53:22.912Z,8.53
2018-03-26T16:55:49.192Z,10.90
2018-03-26T16:58:15.518Z,9.10
2018-03-26T17:00:41.840Z,8.13
2018-03-26T17:03:08.134Z,8.67
2018-03-26T17:05:35.211Z,8.50
2018-03-26T17:08:01.545Z,8.10
2018-03-26T17:10:27.895Z,8.73
2018-03-26T17:12:54.257Z,8.67
2018-03-26T17:15:22.041Z,7.70
2018-03-26T17:17:48.419Z,8.33
2018-03-26T17:20:14.755Z,9.27
2018-03-26T17:22:41.119Z,8.73
2018-03-26T17:25:07.507Z,8.90
2018-03-26T17:27:33.847Z,7.93
2018-03-26T17:30:00.199Z,8.20
2018-03-26T17:32:26.558Z,8.70
2018-03-26T17:34:53.599Z,10.17
2018-03-26T17:37:20.699Z,8.77
2018-03-26T17:39:47.764Z,7.97
2018-03-26T17:42:14.118Z,8.53
2018-03-26T17:44:41.178Z,8.40
2018-03-26T17:47:07.546Z,8.03
2018-03-26T17:49:33.914Z,8.97
2018-03-26T17:52:00.299Z,9.83
2018-03-26T17:54:26.582Z,9.30
2018-03-26T17:56:53.614Z,9.70
2018-03-26T17:59:19.962Z,9.17
2018-03-26T18:01:46.986Z,10.00
2018-03-26T18:04:13.337Z,10.33
2018-03-26T18:06:40.368Z,9.50
2018-03-26T18:09:06.667Z,10.00
2018-03-26T18:11:33.011Z,10.67
2018-03-26T18:13:59.322Z,10.43
2018-03-26T18:16:25.652Z,11.00
2018-03-26T18:18:51.957Z,10.13
2018-03-26T18:21:18.309Z,9.70
2018-03-26T18:23:44.592Z,10.50
2018-03-26T18:26:10.948Z,10.33
2018-03-26T18:28:37.226Z,10.93
2018-03-26T18:31:03.590Z,11.73
2018-03-26T18:33:29.890Z,10.90
2018-03-26T18:35:56.207Z,11.07
2018-03-26T18:38:22.552Z,11.33
2018-03-26T18:40:49.652Z,10.70
2018-03-26T18:43:16.007Z,12.13
2018-03-26T18:45:42.314Z,11.50
2018-03-26T18:48:08.791Z,11.90
2018-03-26T18:50:35.891Z,12.40
2018-03-26T18:53:02.194Z,11.13
2018-03-26T18:55:28.510Z,12.20
2018-03-26T18:57:55.625Z,11.57
2018-03-26T19:00:23.155Z,12.20
2018-03-26T19:02:51.109Z,10.80
2018-03-26T19:05:17.439Z,11.27
2018-03-26T19:07:43.736Z,11.47
2018-03-26T19:10:11.123Z,10.80
2018-03-26T19:12:37.426Z,10.63
2018-03-26T19:15:03.785Z,10.93
2018-03-26T19:17:30.082Z,11.13
2018-03-26T19:19:57.214Z,11.33
2018-03-26T19:22:23.922Z,10.67
2018-03-26T19:24:51.258Z,11.60
2018-03-26T19:27:17.793Z,11.10
2018-03-26T19:29:44.107Z,10.03
2018-03-26T19:32:10.673Z,10.47
2018-03-26T19:34:37.043Z,10.17
2018-03-26T19:37:04.306Z,10.47
2018-03-26T19:39:31.386Z,11.13
2018-03-26T19:41:58.630Z,10.77
2018-03-26T19:44:25.031Z,10.50
2018-03-26T19:46:52.277Z,11.40
2018-03-26T19:49:19.379Z,11.13
2018-03-26T19:51:45.882Z,10.30
2018-03-26T19:54:12.207Z,10.60
2018-03-26T19:56:38.509Z,10.27
2018-03-26T19:59:05.315Z,10.63
2018-03-26T20:01:31.598Z,10.70
2018-03-26T20:03:58.244Z,10.97
2018-03-26T20:06:24.536Z,11.13
2018-03-26T20:08:50.951Z,10.80
2018-03-26T20:11:17.542Z,11.70
2018-03-26T20:13:43.828Z,22.60
2018-03-26T20:16:10.159Z,14.37
2018-03-26T20:18:36.441Z,12.97
2018-03-26T20:21:02.811Z,12.00
2018-03-26T20:23:29.174Z,11.03
2018-03-26T20:25:56.256Z,12.00
2018-03-26T20:28:22.645Z,10.67
2018-03-26T20:30:49.710Z,11.97
2018-03-26T20:33:16.085Z,10.80
2018-03-26T20:35:42.423Z,11.40
2018-03-26T20:38:08.822Z,10.30
2018-03-26T20:40:35.883Z,10.80
2018-03-26T20:43:02.280Z,11.40
2018-03-26T20:45:29.338Z,11.77
2018-03-26T20:47:55.974Z,11.43
2018-03-26T20:50:22.335Z,11.23
2018-03-26T20:52:48.695Z,12.27
2018-03-26T20:55:15.731Z,12.23
2018-03-26T20:57:42.814Z,11.60
2018-03-26T21:00:09.323Z,12.70
2018-03-26T21:02:35.699Z,12.50
2018-03-26T21:05:02.023Z,12.13
2018-03-26T21:07:28.393Z,11.97
2018-03-26T21:09:54.685Z,12.60
2018-03-26T21:12:21.018Z,12.00
2018-03-26T21:14:47.353Z,12.20
2018-03-26T21:17:13.673Z,12.67
2018-03-26T21:19:40.017Z,12.00
2018-03-26T21:22:06.326Z,12.77
2018-03-26T21:24:32.699Z,13.70
2018-03-26T21:26:58.997Z,12.00
2018-03-26T21:29:25.344Z,12.77
2018-03-26T21:31:51.668Z,12.60
2018-03-26T21:34:18.046Z,11.43
2018-03-26T21:36:44.354Z,13.27
2018-03-26T21:39:10.782Z,13.30
2018-03-26T21:41:38.586Z,13.43
2018-03-26T21:44:04.932Z,12.57
2018-03-26T21:46:31.281Z,12.40
2018-03-26T21:48:57.613Z,12.90
2018-03-26T21:51:23.973Z,12.97
2018-03-26T21:53:50.259Z,11.97
2018-03-26T21:56:16.607Z,12.43
2018-03-26T21:58:42.917Z,12.90
2018-03-26T22:01:10.047Z,13.13
2018-03-26T22:03:36.347Z,13.23
2018-03-26T22:06:03.425Z,13.77
2018-03-26T22:08:29.721Z,14.33
2018-03-26T22:10:56.780Z,14.90
2018-03-26T22:13:23.256Z,15.07
2018-03-26T22:15:49.558Z,13.37
2018-03-26T22:18:15.856Z,13.03
2018-03-26T22:20:42.951Z,14.90
2018-03-26T22:23:09.297Z,14.10
2018-03-26T22:25:35.621Z,13.50
2018-03-26T22:28:01.952Z,15.70
2018-03-26T22:30:28.582Z,14.90
2018-03-26T22:32:54.871Z,16.60
2018-03-26T22:35:21.196Z,14.23
2018-03-26T22:37:47.511Z,15.30
2018-03-26T22:40:13.860Z,15.23
2018-03-26T22:42:40.189Z,15.27
2018-03-26T22:45:06.489Z,14.90
2018-03-26T22:47:32.834Z,14.67
2018-03-26T22:49:59.878Z,15.83
2018-03-26T22:52:26.970Z,14.90
2018-03-26T22:54:53.249Z,16.50
2018-03-26T22:57:19.963Z,15.60
2018-03-26T22:59:46.244Z,16.20
2018-03-26T23:02:12.545Z,15.67
2018-03-26T23:04:39.686Z,16.07
2018-03-26T23:07:06.516Z,17.07
2018-03-26T23:09:33.525Z,17.10
2018-03-26T23:12:00.421Z,18.13
2018-03-26T23:14:27.767Z,16.73
2018-03-26T23:16:54.721Z,17.53
2018-03-26T23:19:21.136Z,16.40
2018-03-26T23:21:47.500Z,16.57
2018-03-26T23:24:13.846Z,15.90
2018-03-26T23:26:40.291Z,16.73
2018-03-26T23:29:06.671Z,17.23
2018-03-26T23:31:33.812Z,16.87
2018-03-26T23:34:00.286Z,17.73
2018-03-26T23:36:26.705Z,16.40
2018-03-26T23:38:53.115Z,17.07
2018-03-26T23:41:20.176Z,16.30
2018-03-26T23:43:47.257Z,19.40
2018-03-26T23:46:13.588Z,18.17
2018-03-26T23:48:39.949Z,18.13
2018-03-26T23:51:06.272Z,17.73
2018-03-26T23:53:32.580Z,19.10
2018-03-26T23:55:58.922Z,17.73
2018-03-26T23:58:25.234Z,18.80
